Accueil
METAR-TAF:

METAR-TAF

Aéroports :

Nouméa, Nouvelle-Calédonie

Aéroport de Magenta

latitude: 22-15-30S, longitude: 166-28-22E, altitude: 3 m

METAR: absent

Heure: 09:36 (22:36 UTC)

Prévision

Le bulletin a été fait il y a 5 heures et 36 minutes, à 17:00 UTC
Prévision valable du 23 à 18 UTC au 24 à 18 UTC
Vent 5 kt de nord/nord-ouest
Visibilité 10 km ou plus
Nuages épars à une hauteur de 4000 ft
Nuages fragmentés à une hauteur de 11000 ft
Evoluant progressivement
du 23 à 22 UTC au 24 à 01 UTC
Vent 10 kt de sud/sud-est
Temporairement
du 24 à 00 UTC au 24 à 08 UTC
Visibilité: 4000 m
Nuages épars à une hauteur de 2000 ft, Cumulus congestus.
averses de pluie
Evoluant progressivement
du 24 à 06 UTC au 24 à 09 UTC
Vent 2 kt de direction variable

TAF: NWWM 231700Z 2318/2418 33005KT 9999 SCT040 BKN110 BECMG 2322/2401 16010KT TEMPO 2400/2408 4000 SHRA SCT020TCU BECMG 2406/2409 VRB02KT

Observations et prévisions météorologiques de plus de 4000 aéroports (messages METAR et TAF).

Les stations disponibles sont représentées par des disques jaunes et rouges sur la carte.

Passer la souris dessus pour voir le nom de la station.

Cliquer dessus pour voir les observations et prévisions météorologiques.

Pour changer de carte: cliquez sur les boutons verts avec une croix noire pour zoomer, sur le bouton vert avec un tiret pour effectuer un zoom arrière, ou sur les flèches vertes pour les cartes adjacentes.


METAR-TAF: